createdAt,value
2018-03-20T00:01:06.936Z,20.00
2018-03-20T00:03:07.904Z,17.00
2018-03-20T00:05:08.860Z,22.03
2018-03-20T00:07:09.890Z,20.17
2018-03-20T00:09:10.856Z,16.10
2018-03-20T00:11:11.841Z,20.47
2018-03-20T00:13:12.814Z,18.73
2018-03-20T00:15:13.799Z,16.83
2018-03-20T00:17:15.592Z,22.97
2018-03-20T00:19:16.622Z,21.87
2018-03-20T00:21:17.635Z,22.20
2018-03-20T00:23:18.623Z,20.80
2018-03-20T00:25:20.326Z,19.10
2018-03-20T00:27:21.922Z,18.98
2018-03-20T00:29:23.031Z,17.27
2018-03-20T00:31:24.013Z,16.73
2018-03-20T00:33:24.994Z,15.53
2018-03-20T00:35:26.729Z,20.70
2018-03-20T00:37:27.711Z,21.20
2018-03-20T00:39:28.675Z,17.90
2018-03-20T00:41:29.663Z,15.13
2018-03-20T00:43:30.652Z,20.93
2018-03-20T00:45:31.637Z,18.50
2018-03-20T00:47:32.694Z,30.70
2018-03-20T00:49:33.659Z,18.17
2018-03-20T00:51:34.638Z,17.87
2018-03-20T00:53:35.691Z,19.10
2018-03-20T00:55:36.657Z,19.52
2018-03-20T00:57:37.619Z,16.77
2018-03-20T00:59:38.573Z,19.98
2018-03-20T01:01:39.545Z,19.60
2018-03-20T01:03:41.274Z,21.20
2018-03-20T01:05:42.491Z,26.85
2018-03-20T01:07:43.518Z,21.05
2018-03-20T01:09:44.506Z,22.98
2018-03-20T01:11:45.516Z,23.40
2018-03-20T01:13:47.265Z,22.98
2018-03-20T01:15:49.017Z,21.55
2018-03-20T01:17:50.002Z,22.98
2018-03-20T01:19:51.029Z,18.73
2018-03-20T01:21:52.079Z,19.85
2018-03-20T01:23:53.854Z,25.92
2018-03-20T01:25:54.870Z,23.40
2018-03-20T01:27:55.903Z,22.75
2018-03-20T01:29:56.897Z,19.80
2018-03-20T01:31:58.024Z,23.40
2018-03-20T01:33:59.027Z,22.75
2018-03-20T01:36:00.177Z,17.50
2018-03-20T01:38:01.224Z,22.13
2018-03-20T01:40:02.345Z,25.60
2018-03-20T01:42:03.616Z,23.33
2018-03-20T01:44:04.628Z,21.12
2018-03-20T01:46:06.451Z,20.40
2018-03-20T01:48:07.563Z,22.60
2018-03-20T01:50:08.545Z,25.73
2018-03-20T01:52:09.631Z,16.07
2018-03-20T01:54:11.356Z,18.23
2018-03-20T01:56:12.407Z,22.00
2018-03-20T01:58:13.453Z,16.17
2018-03-20T02:00:14.488Z,19.12
2018-03-20T02:02:16.033Z,18.98
2018-03-20T02:04:16.987Z,17.75
2018-03-20T02:06:17.944Z,17.80
2018-03-20T02:08:18.907Z,17.67
2018-03-20T02:10:19.880Z,24.67
2018-03-20T02:12:20.924Z,23.57
2018-03-20T02:14:22.749Z,23.52
2018-03-20T02:16:23.765Z,21.42
2018-03-20T02:18:24.741Z,19.75
2018-03-20T02:20:25.704Z,22.53
2018-03-20T02:22:26.756Z,24.07
2018-03-20T02:24:27.759Z,17.80
2018-03-20T02:26:28.756Z,19.87
2018-03-20T02:28:30.540Z,25.55
2018-03-20T02:30:32.320Z,17.85
2018-03-20T02:32:33.316Z,15.50
2018-03-20T02:34:34.312Z,27.10
2018-03-20T02:36:35.279Z,18.07
2018-03-20T02:38:36.243Z,22.90
2018-03-20T02:40:37.204Z,26.07
2018-03-20T02:42:38.151Z,17.60
2018-03-20T02:44:39.136Z,20.37
2018-03-20T02:46:40.240Z,22.20
2018-03-20T02:48:41.282Z,20.25
2018-03-20T02:50:42.259Z,22.90
2018-03-20T02:52:43.300Z,26.48
2018-03-20T02:54:44.380Z,23.00
2018-03-20T02:56:45.359Z,23.30
2018-03-20T02:58:46.332Z,25.63
2018-03-20T03:00:47.315Z,26.50
2018-03-20T03:02:49.096Z,18.13
2018-03-20T03:04:50.102Z,23.40
2018-03-20T03:06:51.060Z,39.45
2018-03-20T03:08:52.026Z,37.13
2018-03-20T03:10:53.770Z,32.77
2018-03-20T03:12:54.766Z,30.15
2018-03-20T03:14:55.767Z,26.23
2018-03-20T03:16:57.491Z,32.03
2018-03-20T03:18:58.472Z,26.87
2018-03-20T03:21:00.231Z,27.83
2018-03-20T03:23:01.934Z,25.08
2018-03-20T03:25:02.957Z,32.08
2018-03-20T03:27:04.703Z,36.45
2018-03-20T03:29:06.786Z,39.35
2018-03-20T03:31:08.498Z,27.90
2018-03-20T03:33:09.504Z,24.10
2018-03-20T03:35:11.787Z,32.83
2018-03-20T03:37:12.841Z,29.48
2018-03-20T03:39:14.529Z,36.40
2018-03-20T03:41:15.491Z,43.15
2018-03-20T03:43:16.449Z,33.15
2018-03-20T03:45:17.404Z,24.50
2018-03-20T03:47:18.351Z,28.90
2018-03-20T03:49:19.380Z,36.67
2018-03-20T03:51:20.338Z,25.05
2018-03-20T03:53:21.364Z,47.62
2018-03-20T03:55:22.400Z,29.33
2018-03-20T03:57:23.432Z,32.35
2018-03-20T03:59:24.448Z,42.30
2018-03-20T04:01:26.252Z,32.80
2018-03-20T04:03:27.925Z,33.35
2018-03-20T04:05:28.902Z,35.97
2018-03-20T04:07:29.921Z,30.10
2018-03-20T04:09:30.891Z,41.25
2018-03-20T04:11:31.936Z,34.60
2018-03-20T04:13:32.922Z,45.30
2018-03-20T04:15:34.675Z,34.90
2018-03-20T04:17:36.371Z,35.20
2018-03-20T04:19:37.399Z,42.53
2018-03-20T04:21:38.430Z,46.75
2018-03-20T04:23:40.197Z,32.78
2018-03-20T04:25:41.911Z,35.03
2018-03-20T04:27:42.938Z,52.53
2018-03-20T04:29:43.972Z,38.40
2018-03-20T04:31:44.994Z,57.40
2018-03-20T04:33:45.951Z,42.85
2018-03-20T04:35:47.627Z,36.13
2018-03-20T04:37:48.592Z,38.85
2018-03-20T04:39:49.543Z,57.00
2018-03-20T04:41:51.302Z,34.47
2018-03-20T04:43:52.270Z,38.78
2018-03-20T04:45:53.251Z,42.57
2018-03-20T04:47:54.215Z,33.87
2018-03-20T04:49:55.203Z,38.93
2018-03-20T04:51:56.159Z,36.03
2018-03-20T04:53:57.103Z,41.13
2018-03-20T04:55:58.047Z,68.97
2018-03-20T04:57:58.994Z,65.63
2018-03-20T05:00:00.010Z,59.38
2018-03-20T05:02:00.991Z,54.47
2018-03-20T05:04:02.040Z,49.03
2018-03-20T05:06:03.014Z,51.40
2018-03-20T05:08:04.037Z,45.00
2018-03-20T05:10:05.101Z,50.00
2018-03-20T05:12:06.848Z,50.85
2018-03-20T05:14:07.806Z,62.17
2018-03-20T05:16:08.811Z,47.67
2018-03-20T05:18:09.867Z,48.92
2018-03-20T05:20:17.029Z,60.83
2018-03-20T05:22:36.911Z,40.47
2018-03-20T05:24:38.591Z,65.53
2018-03-20T05:26:39.555Z,56.05
2018-03-20T05:28:40.615Z,47.03
2018-03-20T05:30:41.677Z,49.13
2018-03-20T05:32:42.735Z,58.38
2018-03-20T05:34:44.573Z,58.17
2018-03-20T05:36:45.586Z,62.78
2018-03-20T05:38:46.594Z,67.53
2018-03-20T05:40:47.709Z,53.35
2018-03-20T05:42:48.759Z,54.38
2018-03-20T05:44:49.827Z,51.50
2018-03-20T05:49:38.352Z,59.35
2018-03-20T05:54:15.605Z,66.22
2018-03-20T05:56:16.564Z,74.30
2018-03-20T05:58:17.549Z,57.10
2018-03-20T06:00:18.516Z,59.23
2018-03-20T06:02:20.246Z,67.93
2018-03-20T06:04:21.207Z,54.42
2018-03-20T06:06:22.155Z,85.75
2018-03-20T06:08:23.157Z,70.43
2018-03-20T06:10:24.122Z,73.30
2018-03-20T06:12:25.096Z,68.63
2018-03-20T06:14:26.801Z,70.00
2018-03-20T06:16:27.792Z,82.12
2018-03-20T06:18:28.750Z,66.87
2018-03-20T06:20:29.728Z,77.32
2018-03-20T06:22:30.748Z,69.53
2018-03-20T06:24:31.724Z,76.45
2018-03-20T06:26:32.671Z,77.10
2018-03-20T06:28:33.613Z,54.57
2018-03-20T06:30:34.546Z,59.50
2018-03-20T06:32:36.276Z,63.40
2018-03-20T06:34:37.248Z,59.42
2018-03-20T06:36:38.947Z,62.90
2018-03-20T06:38:39.923Z,69.62
2018-03-20T06:40:40.883Z,90.03
2018-03-20T06:42:41.924Z,75.53
2018-03-20T06:44:42.899Z,72.90
2018-03-20T06:46:44.603Z,80.17
2018-03-20T06:48:45.564Z,50.30
2018-03-20T06:50:46.564Z,71.67
2018-03-20T06:52:47.515Z,61.30
2018-03-20T06:54:48.473Z,61.20
2018-03-20T06:56:49.432Z,65.07
2018-03-20T06:58:50.400Z,35.17
2018-03-20T07:00:51.346Z,48.83
2018-03-20T07:02:52.299Z,59.93
2018-03-20T07:04:53.250Z,32.37
2018-03-20T07:06:54.179Z,33.03
2018-03-20T07:08:55.156Z,40.00
2018-03-20T07:10:56.904Z,35.87
2018-03-20T07:12:57.885Z,28.57
2018-03-20T07:14:59.615Z,45.30
2018-03-20T07:17:00.570Z,41.50
2018-03-20T07:19:01.544Z,26.93
2018-03-20T07:21:02.508Z,32.30
2018-03-20T07:23:03.696Z,28.47
2018-03-20T07:25:04.638Z,30.90
2018-03-20T07:27:05.600Z,36.47
2018-03-20T07:29:06.558Z,57.87
2018-03-20T07:31:07.613Z,17.77
2018-03-20T07:33:09.321Z,20.80
2018-03-20T07:35:10.368Z,23.67
2018-03-20T07:37:11.367Z,25.30
2018-03-20T07:39:13.141Z,25.80
2018-03-20T07:41:14.842Z,21.90
2018-03-20T07:43:15.884Z,21.93
2018-03-20T07:45:16.935Z,22.67
2018-03-20T07:47:17.902Z,26.10
2018-03-20T07:49:18.896Z,27.27
2018-03-20T07:51:19.855Z,25.20
2018-03-20T07:53:20.792Z,19.03
2018-03-20T07:55:22.477Z,21.93
2018-03-20T07:57:23.407Z,21.03
2018-03-20T07:59:24.371Z,17.70
2018-03-20T08:01:25.355Z,15.10
2018-03-20T08:03:26.301Z,24.03
2018-03-20T08:05:27.287Z,20.43
2018-03-20T08:07:28.295Z,17.50
2018-03-20T08:09:29.369Z,18.77
2018-03-20T08:11:30.373Z,11.93
2018-03-20T08:13:31.340Z,15.87
2018-03-20T08:15:32.276Z,23.47
2018-03-20T08:17:33.231Z,19.20
2018-03-20T08:19:34.196Z,15.07
2018-03-20T08:21:35.880Z,12.10
2018-03-20T08:23:36.814Z,12.40
2018-03-20T08:25:38.510Z,11.67
2018-03-20T08:27:39.483Z,9.20
2018-03-20T08:29:40.515Z,20.00
2018-03-20T08:31:41.467Z,7.53
2018-03-20T08:33:42.444Z,9.50
2018-03-20T08:35:43.528Z,8.93
2018-03-20T08:37:44.484Z,9.23
2018-03-20T08:39:45.449Z,12.53
2018-03-20T08:41:46.424Z,12.30
2018-03-20T08:43:47.406Z,9.40
2018-03-20T08:45:48.484Z,12.52
2018-03-20T08:47:49.465Z,9.93
2018-03-20T08:49:50.404Z,8.90
2018-03-20T08:51:51.399Z,15.33
2018-03-20T08:53:52.339Z,16.87
2018-03-20T08:55:53.363Z,6.90
2018-03-20T08:57:54.316Z,11.70
2018-03-20T08:59:55.267Z,7.80
2018-03-20T09:01:57.032Z,11.77
2018-03-20T09:03:58.727Z,8.38
2018-03-20T09:05:59.701Z,7.20
2018-03-20T09:08:00.809Z,6.80
2018-03-20T09:10:01.815Z,9.50
2018-03-20T09:12:03.510Z,7.70
2018-03-20T09:14:04.487Z,13.87
2018-03-20T09:16:05.444Z,13.10
2018-03-20T09:18:06.395Z,6.17
2018-03-20T09:20:07.350Z,7.77
2018-03-20T09:22:08.319Z,7.30
2018-03-20T09:24:10.065Z,9.57
2018-03-20T09:26:11.048Z,7.70
2018-03-20T09:28:12.066Z,5.60
2018-03-20T09:30:13.089Z,8.05
2018-03-20T09:32:14.111Z,7.90
2018-03-20T09:34:15.064Z,6.27
2018-03-20T09:36:16.019Z,7.12
2018-03-20T09:38:16.984Z,8.20
2018-03-20T09:40:17.936Z,8.43
2018-03-20T09:42:18.926Z,11.57
2018-03-20T09:44:19.975Z,8.77
2018-03-20T09:46:20.957Z,8.77
2018-03-20T09:48:22.007Z,9.47
2018-03-20T09:50:22.998Z,8.97
2018-03-20T09:52:23.967Z,11.73
2018-03-20T09:54:24.939Z,10.97
2018-03-20T09:56:25.999Z,10.20
2018-03-20T09:58:27.119Z,10.40
2018-03-20T10:00:28.071Z,6.83
2018-03-20T10:02:29.003Z,6.43
2018-03-20T10:04:29.943Z,6.60
2018-03-20T10:06:30.928Z,11.30
2018-03-20T10:08:31.888Z,11.60
2018-03-20T10:10:32.943Z,11.00
2018-03-20T10:12:33.954Z,9.87
2018-03-20T10:14:34.936Z,6.77
2018-03-20T10:16:36.281Z,6.90
2018-03-20T10:18:37.259Z,5.80
2018-03-20T10:20:39.025Z,10.98
2018-03-20T10:22:41.018Z,5.93
2018-03-20T10:24:42.043Z,7.73
2018-03-20T10:26:43.789Z,10.40
2018-03-20T10:28:44.788Z,8.20
2018-03-20T10:30:45.762Z,7.62
2018-03-20T10:32:46.772Z,3.67
2018-03-20T10:34:47.800Z,5.37
2018-03-20T10:36:49.496Z,7.73
2018-03-20T10:38:50.423Z,5.87
2018-03-20T10:40:51.437Z,6.20
2018-03-20T10:42:52.445Z,8.20
2018-03-20T10:44:53.403Z,7.70
2018-03-20T10:46:54.420Z,6.93
2018-03-20T10:48:55.403Z,7.80
2018-03-20T10:50:56.351Z,6.30
2018-03-20T10:52:57.332Z,5.70
2018-03-20T10:54:59.059Z,6.97
2018-03-20T10:57:00.043Z,4.50
2018-03-20T10:59:02.021Z,7.53
2018-03-20T11:01:05.952Z,8.30
2018-03-20T11:03:07.748Z,7.33
2018-03-20T11:05:08.715Z,7.30
2018-03-20T11:07:09.747Z,6.53
2018-03-20T11:09:10.843Z,7.73
2018-03-20T11:11:11.839Z,6.32
2018-03-20T11:13:12.820Z,5.57
2018-03-20T11:15:13.777Z,4.50
2018-03-20T11:17:15.639Z,6.18
2018-03-20T11:19:17.327Z,5.60
2018-03-20T11:21:18.348Z,4.80
2018-03-20T11:23:19.312Z,6.22
2018-03-20T11:25:20.271Z,6.30
2018-03-20T11:27:21.228Z,3.60
2018-03-20T11:29:22.227Z,4.80
2018-03-20T11:31:23.181Z,9.43
2018-03-20T11:33:24.880Z,7.37
2018-03-20T11:35:25.960Z,9.82
2018-03-20T11:37:26.996Z,10.10
2018-03-20T11:39:28.157Z,7.73
2018-03-20T11:41:29.116Z,8.73
2018-03-20T11:43:30.135Z,5.73
2018-03-20T11:45:31.098Z,6.63
2018-03-20T11:47:32.040Z,9.00
2018-03-20T11:49:33.020Z,8.03
2018-03-20T11:51:41.540Z,4.63
2018-03-20T11:53:43.515Z,4.10
2018-03-20T11:55:44.547Z,9.00
2018-03-20T11:57:45.487Z,5.83
2018-03-20T11:59:46.452Z,4.80
2018-03-20T12:01:48.148Z,4.50
2018-03-20T12:03:49.135Z,5.67
2018-03-20T12:05:50.220Z,5.83
2018-03-20T12:07:53.191Z,7.30
2018-03-20T12:09:54.157Z,5.07
2018-03-20T12:11:55.857Z,7.10
2018-03-20T12:13:56.910Z,13.10
2018-03-20T12:15:58.429Z,3.67
2018-03-20T12:17:59.490Z,9.93
2018-03-20T12:20:00.524Z,6.20
2018-03-20T12:22:01.659Z,4.28
2018-03-20T12:24:02.867Z,2.40
2018-03-20T12:26:03.917Z,4.07
2018-03-20T12:28:04.912Z,2.40
2018-03-20T12:30:06.635Z,8.40
2018-03-20T12:32:07.579Z,4.40
2018-03-20T12:34:08.552Z,6.30
2018-03-20T12:36:09.576Z,8.00
2018-03-20T12:38:10.538Z,6.60
2018-03-20T12:40:11.524Z,5.50
2018-03-20T12:42:13.338Z,17.23
2018-03-20T12:44:14.320Z,7.33
2018-03-20T12:46:15.275Z,6.00
2018-03-20T12:48:16.228Z,7.62
2018-03-20T12:50:17.165Z,3.63
2018-03-20T12:52:18.104Z,5.23
2018-03-20T12:54:19.933Z,3.70
2018-03-20T12:56:20.922Z,8.40
2018-03-20T12:58:21.867Z,4.03
2018-03-20T13:00:23.543Z,2.13
2018-03-20T13:02:24.527Z,6.70
2018-03-20T13:04:26.548Z,4.63
2018-03-20T13:06:27.602Z,5.62
2018-03-20T13:08:28.616Z,3.33
2018-03-20T13:10:30.319Z,3.83
2018-03-20T13:12:31.257Z,3.47
2018-03-20T13:14:32.448Z,3.60
2018-03-20T13:16:33.440Z,2.97
2018-03-20T13:18:35.164Z,2.63
2018-03-20T13:20:36.135Z,3.20
2018-03-20T13:22:37.125Z,2.70
2018-03-20T13:24:38.091Z,3.87
2018-03-20T13:26:39.086Z,2.87
2018-03-20T13:28:40.073Z,6.67
2018-03-20T13:30:41.681Z,4.55
2018-03-20T13:32:43.421Z,4.83
2018-03-20T13:34:44.770Z,8.83
2018-03-20T13:36:46.111Z,4.70
2018-03-20T13:38:47.127Z,3.50
2018-03-20T13:40:48.140Z,6.17
2018-03-20T13:42:49.111Z,4.53
2018-03-20T13:44:50.067Z,6.30
2018-03-20T13:46:51.463Z,4.60
2018-03-20T13:48:53.236Z,2.90
2018-03-20T13:50:54.692Z,5.07
2018-03-20T13:52:55.778Z,3.00
2018-03-20T13:54:56.816Z,2.95
2018-03-20T13:56:58.515Z,3.10
2018-03-20T13:58:59.496Z,2.60
2018-03-20T14:01:00.855Z,4.50
2018-03-20T14:03:01.888Z,4.80
2018-03-20T14:05:03.531Z,3.83
2018-03-20T14:07:05.598Z,9.00
2018-03-20T14:09:06.660Z,4.10
2018-03-20T14:11:07.637Z,3.27
2018-03-20T14:13:08.606Z,4.10
2018-03-20T14:15:10.471Z,9.90
2018-03-20T14:17:13.071Z,2.80
2018-03-20T14:19:15.272Z,3.55
2018-03-20T14:21:16.277Z,4.60
2018-03-20T14:23:18.095Z,3.10
2018-03-20T14:25:19.743Z,16.70
2018-03-20T14:27:20.703Z,4.53
2018-03-20T14:29:23.095Z,3.23
2018-03-20T14:31:24.236Z,5.30
2018-03-20T14:33:25.221Z,4.87
2018-03-20T14:35:27.514Z,3.10
2018-03-20T14:37:29.215Z,5.13
2018-03-20T14:39:32.690Z,3.17
2018-03-20T14:41:33.891Z,6.33
2018-03-20T14:43:35.924Z,7.25
2018-03-20T14:45:37.021Z,2.33
2018-03-20T14:47:37.975Z,2.20
2018-03-20T14:49:38.925Z,3.00
2018-03-20T14:51:39.887Z,4.10
2018-03-20T14:53:42.618Z,3.50
2018-03-20T14:55:43.567Z,4.20
2018-03-20T14:57:44.514Z,5.10
2018-03-20T14:59:45.463Z,3.83
2018-03-20T15:01:46.400Z,5.60
2018-03-20T15:03:47.344Z,6.27
2018-03-20T15:05:48.283Z,2.40
2018-03-20T15:07:49.254Z,5.17
2018-03-20T15:09:51.929Z,3.50
2018-03-20T15:11:52.961Z,5.93
2018-03-20T15:13:53.908Z,3.10
2018-03-20T15:15:54.880Z,1.63
2018-03-20T15:17:55.888Z,3.17
2018-03-20T15:19:57.685Z,1.97
2018-03-20T15:21:58.710Z,16.80
2018-03-20T15:23:59.700Z,2.60
2018-03-20T15:26:02.080Z,2.33
2018-03-20T15:28:03.845Z,4.97
2018-03-20T15:30:05.611Z,3.80
2018-03-20T15:32:07.320Z,1.70
2018-03-20T15:34:08.334Z,3.87
2018-03-20T15:36:12.194Z,5.07
2018-03-20T15:38:13.243Z,4.90
2018-03-20T15:40:14.216Z,3.23
2018-03-20T15:42:15.341Z,2.10
2018-03-20T15:44:16.933Z,6.50
2018-03-20T15:46:17.941Z,3.03
2018-03-20T15:48:18.912Z,3.67
2018-03-20T15:50:19.859Z,3.53
2018-03-20T15:52:20.838Z,2.50
2018-03-20T15:54:21.789Z,8.10
2018-03-20T15:56:22.738Z,11.10
2018-03-20T15:58:24.468Z,6.63
2018-03-20T16:00:27.455Z,6.20
2018-03-20T16:02:28.500Z,5.67
2018-03-20T16:04:30.938Z,3.80
2018-03-20T16:06:31.967Z,3.90
2018-03-20T16:08:33.680Z,3.60
2018-03-20T16:10:34.704Z,3.70
2018-03-20T16:12:35.706Z,2.77
2018-03-20T16:14:36.676Z,3.23
2018-03-20T16:16:37.627Z,3.17
2018-03-20T16:18:39.333Z,3.23
2018-03-20T16:20:40.279Z,5.00
2018-03-20T16:22:41.352Z,2.43
2018-03-20T16:24:42.359Z,12.82
2018-03-20T16:26:44.035Z,4.53
2018-03-20T16:28:46.142Z,4.87
2018-03-20T16:30:47.584Z,4.97
2018-03-20T16:32:48.683Z,3.60
2018-03-20T16:34:49.708Z,3.33
2018-03-20T16:36:50.697Z,6.47
2018-03-20T16:38:52.456Z,2.90
2018-03-20T16:40:53.427Z,2.93
2018-03-20T16:42:54.404Z,4.57
2018-03-20T16:44:55.354Z,4.80
2018-03-20T16:46:57.037Z,4.33
2018-03-20T16:48:58.048Z,4.87
2018-03-20T16:50:59.003Z,4.17
2018-03-20T16:52:59.991Z,4.83
2018-03-20T16:55:01.145Z,3.90
2018-03-20T16:57:02.203Z,6.00
2018-03-20T16:59:03.200Z,3.70
2018-03-20T17:01:04.949Z,2.60
2018-03-20T17:03:05.919Z,5.37
2018-03-20T17:05:07.664Z,9.37
2018-03-20T17:07:08.962Z,5.07
2018-03-20T17:09:09.946Z,7.03
2018-03-20T17:11:10.904Z,4.53
2018-03-20T17:13:11.882Z,5.83
2018-03-20T17:15:12.996Z,6.50
2018-03-20T17:17:13.988Z,9.00
2018-03-20T17:19:14.934Z,3.50
2018-03-20T17:21:15.907Z,4.93
2018-03-20T17:23:16.899Z,6.43
2018-03-20T17:25:18.683Z,4.23
2018-03-20T17:27:19.652Z,6.73
2018-03-20T17:29:20.639Z,3.07
2018-03-20T17:31:21.648Z,5.90
2018-03-20T17:33:22.655Z,6.17
2018-03-20T17:35:24.373Z,7.63
2018-03-20T17:37:25.331Z,7.22
2018-03-20T17:39:26.296Z,7.90
2018-03-20T17:41:27.380Z,8.93
2018-03-20T17:43:28.352Z,10.43
2018-03-20T17:45:29.470Z,6.90
2018-03-20T17:47:30.489Z,5.20
2018-03-20T17:52:20.300Z,4.00
2018-03-20T17:56:42.156Z,4.23
2018-03-20T17:59:01.016Z,5.13
2018-03-20T18:01:07.260Z,4.73
2018-03-20T18:03:12.681Z,8.17
2018-03-20T18:05:22.627Z,9.57
2018-03-20T18:07:24.961Z,10.10
2018-03-20T18:09:26.994Z,10.43
2018-03-20T18:11:29.199Z,22.83
2018-03-20T18:13:33.882Z,14.40
2018-03-20T18:15:40.465Z,18.00
2018-03-20T18:17:42.412Z,14.47
2018-03-20T18:19:43.383Z,12.13
2018-03-20T18:21:44.367Z,5.17
2018-03-20T18:23:45.385Z,9.63
2018-03-20T18:25:46.414Z,5.77
2018-03-20T18:27:47.395Z,8.33
2018-03-20T18:29:48.357Z,6.00
2018-03-20T18:31:49.347Z,2.70
2018-03-20T18:33:50.328Z,5.43
2018-03-20T18:35:51.297Z,11.55
2018-03-20T18:37:52.267Z,7.70
2018-03-20T18:39:53.276Z,5.93
2018-03-20T18:41:54.247Z,8.93
2018-03-20T18:43:55.212Z,5.90
2018-03-20T18:45:56.194Z,7.93
2018-03-20T18:47:57.351Z,8.10
2018-03-20T18:49:58.343Z,8.57
2018-03-20T18:51:59.420Z,9.37
2018-03-20T18:54:00.383Z,10.68
2018-03-20T18:56:01.385Z,3.70
2018-03-20T18:58:02.364Z,7.63
2018-03-20T19:00:04.210Z,7.50
2018-03-20T19:02:05.176Z,4.57
2018-03-20T19:04:06.178Z,5.40
2018-03-20T19:06:07.189Z,4.53
2018-03-20T19:08:08.184Z,6.17
2018-03-20T19:10:09.188Z,12.57
2018-03-20T19:12:10.159Z,7.15
2018-03-20T19:14:11.140Z,5.60
2018-03-20T19:16:12.128Z,3.33
2018-03-20T19:18:13.179Z,12.67
2018-03-20T19:20:14.938Z,4.60
2018-03-20T19:22:16.669Z,7.97
2018-03-20T19:24:17.667Z,4.70
2018-03-20T19:26:18.642Z,4.93
2018-03-20T19:28:19.661Z,8.13
2018-03-20T19:30:20.734Z,11.47
2018-03-20T19:32:21.677Z,4.03
2018-03-20T19:34:22.679Z,6.67
2018-03-20T19:36:23.644Z,14.80
2018-03-20T19:38:24.744Z,7.03
2018-03-20T19:40:25.756Z,7.10
2018-03-20T19:42:26.764Z,5.27
2018-03-20T19:44:27.750Z,6.27
2018-03-20T19:46:28.727Z,9.00
2018-03-20T19:48:29.723Z,7.62
2018-03-20T19:50:30.676Z,7.60
2018-03-20T19:52:31.673Z,7.37
2018-03-20T19:54:33.676Z,10.38
2018-03-20T19:56:34.676Z,10.83
2018-03-20T19:58:36.442Z,7.97
2018-03-20T20:00:37.541Z,9.35
2018-03-20T20:02:38.519Z,9.80
2018-03-20T20:04:39.571Z,4.07
2018-03-20T20:06:40.587Z,11.12
2018-03-20T20:08:41.562Z,3.83
2018-03-20T20:10:42.534Z,4.97
2018-03-20T20:12:43.505Z,10.20
2018-03-20T20:14:44.467Z,15.47
2018-03-20T20:16:45.468Z,13.23
2018-03-20T20:18:46.443Z,7.30
2018-03-20T20:20:47.416Z,7.90
2018-03-20T20:22:48.395Z,6.43
2018-03-20T20:24:49.442Z,17.80
2018-03-20T20:26:50.423Z,18.87
2018-03-20T20:28:52.129Z,7.57
2018-03-20T20:30:53.143Z,7.00
2018-03-20T20:32:54.117Z,5.53
2018-03-20T20:34:55.117Z,4.30
2018-03-20T20:36:56.855Z,8.35
2018-03-20T20:38:57.830Z,9.17
2018-03-20T20:40:58.788Z,6.50
2018-03-20T20:42:59.832Z,10.40
2018-03-20T20:45:00.800Z,6.00
2018-03-20T20:47:01.791Z,6.73
2018-03-20T20:49:02.787Z,8.73
2018-03-20T20:51:03.764Z,10.43
2018-03-20T20:53:04.727Z,10.30
2018-03-20T20:55:05.700Z,5.20
2018-03-20T20:57:06.655Z,5.30
2018-03-20T20:59:07.732Z,11.10
2018-03-20T21:01:08.759Z,6.93
2018-03-20T21:03:09.737Z,9.27
2018-03-20T21:05:10.705Z,10.73
2018-03-20T21:07:11.707Z,8.87
2018-03-20T21:09:12.801Z,8.97
2018-03-20T21:11:13.783Z,6.93
2018-03-20T21:13:14.760Z,9.17
2018-03-20T21:15:15.865Z,10.43
2018-03-20T21:17:17.859Z,14.00
2018-03-20T21:19:18.822Z,9.82
2018-03-20T21:21:19.809Z,13.43
2018-03-20T21:23:20.926Z,11.60
2018-03-20T21:25:21.975Z,9.05
2018-03-20T21:27:23.058Z,8.40
2018-03-20T21:29:24.182Z,6.93
2018-03-20T21:31:25.891Z,19.70
2018-03-20T21:33:27.782Z,7.63
2018-03-20T21:35:29.085Z,7.50
2018-03-20T21:37:30.130Z,5.37
2018-03-20T21:39:31.148Z,9.60
2018-03-20T21:41:32.167Z,19.03
2018-03-20T21:43:33.190Z,6.60
2018-03-20T21:45:35.022Z,6.00
2018-03-20T21:47:36.674Z,9.73
2018-03-20T21:49:37.723Z,7.97
2018-03-20T21:51:38.792Z,6.07
2018-03-20T21:53:39.761Z,8.37
2018-03-20T21:55:40.758Z,5.70
2018-03-20T21:57:41.811Z,8.17
2018-03-20T21:59:43.609Z,8.53
2018-03-20T22:01:44.654Z,11.80
2018-03-20T22:03:45.688Z,7.33
2018-03-20T22:05:47.708Z,6.07
2018-03-20T22:07:48.679Z,8.30
2018-03-20T22:09:49.669Z,8.82
2018-03-20T22:11:51.859Z,5.80
2018-03-20T22:13:52.838Z,4.67
2018-03-20T22:15:53.912Z,13.00
2018-03-20T22:17:54.899Z,8.13
2018-03-20T22:19:56.604Z,7.93
2018-03-20T22:21:57.607Z,6.33
2018-03-20T22:23:58.583Z,10.50
2018-03-20T22:25:59.611Z,5.27
2018-03-20T22:28:00.669Z,8.13
2018-03-20T22:30:01.671Z,8.33
2018-03-20T22:32:02.654Z,8.30
2018-03-20T22:34:04.423Z,11.75
2018-03-20T22:36:05.483Z,15.03
2018-03-20T22:38:06.456Z,20.87
2018-03-20T22:40:07.412Z,8.98
2018-03-20T22:42:08.374Z,13.73
2018-03-20T22:44:09.919Z,10.00
2018-03-20T22:46:11.531Z,7.03
2018-03-20T22:48:12.921Z,13.03
2018-03-20T22:50:14.587Z,9.57
2018-03-20T22:52:15.623Z,11.23
2018-03-20T22:54:16.606Z,8.82
2018-03-20T22:56:17.678Z,10.40
2018-03-20T22:58:18.672Z,9.80
2018-03-20T23:00:27.779Z,11.90
2018-03-20T23:02:28.774Z,9.53
2018-03-20T23:04:29.766Z,9.70
2018-03-20T23:06:30.765Z,11.85
2018-03-20T23:08:31.872Z,13.93
2018-03-20T23:10:32.855Z,8.00
2018-03-20T23:12:33.819Z,18.87
2018-03-20T23:14:34.792Z,11.00
2018-03-20T23:16:35.789Z,14.90
2018-03-20T23:20:49.882Z,11.00
2018-03-20T23:22:50.985Z,10.00
2018-03-20T23:24:52.834Z,13.03
2018-03-20T23:26:53.824Z,12.23
2018-03-20T23:28:54.825Z,8.67
2018-03-20T23:30:57.475Z,10.47
2018-03-20T23:32:58.502Z,14.30
2018-03-20T23:35:09.322Z,12.13
2018-03-20T23:37:11.153Z,10.77
2018-03-20T23:39:12.163Z,22.30
2018-03-20T23:41:13.272Z,15.73
2018-03-20T23:43:14.258Z,9.57
2018-03-20T23:45:15.525Z,14.93
2018-03-20T23:47:16.546Z,17.20
2018-03-20T23:49:21.475Z,9.50
2018-03-20T23:51:22.475Z,6.78
2018-03-20T23:53:23.459Z,5.85
2018-03-20T23:55:24.640Z,19.37
2018-03-20T23:57:25.734Z,4.82
2018-03-20T23:59:27.009Z,11.70
